Procure no Apolo11
Meteógrafos Informações Meteorológicas em tempo real
Aeroporto de Congonhas
20-05-2022 23:56 BRT (UTC-3)

Temperatura atual: 10 graus 50 F    Umidade relativa: 93 %
Velocidade do vento: 02 nós 3 Km/h    Direção: 140 graus SE
Ajuste do altímetro ..: 1024 HPA
Visibilidade: Ótima    Tempo presente: Céu Limpo

Observação
Data Hora BRTTempo°CUmidadePressãoVentoVisib.
20/05 - 22:55   Não Disponível 11° 87% 1024 Sudeste/5 km/h OK
20/05 - 21:55   Céu Limpo 11° 93% 1024 Este-sudeste/5 km/h CAVO
20/05 - 20:55   Céu Limpo 11° 87% 1023 Sul-sudeste/9 km/h OK
20/05 - 19:55   Céu Limpo 11° 87% 1023 Sul-sudeste/9 km/h OK
20/05 - 18:55   Poucas nuvens esparsas 14° 76% 1022 Sudeste/12 km/h 9999
20/05 - 17:55   Poucas nuvens esparsas 15° 67% 1022 Sudeste/12 km/h OK
20/05 - 16:56   Poucas nuvens esparsas 15° 67% 1022 Sudeste/12 km/h OK
20/05 - 15:55   Parcialmente Nublado 17° 55% 1022 Sul-sudeste/7 km/h 9999
20/05 - 14:55   Poucas nuvens esparsas 16° 59% 1022 Sudeste/7 km/h 9999
20/05 - 13:55   Poucas nuvens esparsas 16° 59% 1022 Sudeste/7 km/h 9999
20/05 - 12:55   Parcialmente Nublado 15° 63% 1024 /9 km/h OK
20/05 - 10:55   Poucas nuvens esparsas 15° 67% 1024 /5 km/h OK
20/05 - 09:55   Não Disponível 12° 76% 1024 /1 km/h OK
20/05 - 08:55   Não Disponível 09° 87% 1023 /3 km/h OK
20/05 - 07:55   Céu Limpo 07° 93% 1022 Noroeste/7 km/h OK
20/05 - 06:55   Céu Limpo 07° 87% 1021 Norte-noroeste/5 km/h OK
20/05 - 05:55   Céu Limpo 07° 87% 1021 Noroeste/5 km/h OK
20/05 - 04:55   Céu Limpo 07° 87% 1021 Noroeste/3 km/h OK
20/05 - 03:55   Céu Limpo 08° 87% 1021 Norte/3 km/h OK
20/05 - 02:55   Céu Limpo 08° 87% 1021 Noroeste/9 km/h OK
20/05 - 01:55   Céu Limpo 08° 87% 1021 Norte-nordeste/5 km/h CAVO
20/05 - 00:55   Céu Limpo 10° 81% 1021 Oeste-noroeste/5 km/h OK
19/05 - 23:55   Céu Limpo 10° 81% 1022 Oeste/5 km/h CAVO
19/05 - 22:55   Não Disponível 11° 76% 1022 Oeste-noroeste/5 km/h 9999

Termo de Uso  |   Links Úteis  |   Imprensa  |  Anuncie  |  Fale Conosco  |  Versão Celular  |   Política de Privacidade

Apolo11.com - Todos os direitos reservados - 2000 - 2022

"Os liberais podem entender tudo, exceto as pessoas que não os entendem." - Lenny Bruce -